Strona główna
METAR-TAF:

METAR-TAF

Lotnisko :

Port lotniczy Gran Canaria

Gran Canaria, Hiszpania

Szerokość geograficzna: 27-56N, Długość geograficzna: 015-23W, wysokość: 23 m

Aktualna obserwacja pogody

Raport powstał 19 minut temu, godzina 08:00 UTC
Wiatr 19 kt od północno-północny wschód
Temperatura 21°C
Wilgotność 78%
Ciśnienie 1017 hPa
Widzialność 10 km lub więcej
Mało chmury na wysokości 2000 ft

METAR: GCLP 280800Z 02019KT 9999 FEW020 21/17 Q1017 NOSIG

czas: 09:19 (08:19 UTC)

Prognoza

Raport powstał 6 godziny i 19 minut temu, godzina 02:00 UTC
Prognoza ważna od 28 godzina 03 UTC do 29 godzina 03 UTC
Wiatr 15 kt od północ
Widzialność 10 km lub więcej
Brak chmur poniżej 1500 m i brak chmur cumulonimbus
Prawdopodobieństwo 30% :
Przejściowo
od 28 godzina 14 UTC do 28 godzina 21 UTC
Wiatr 18 kt od północ w porywach dochodzący do 28 kt

TAF: GCLP 280200Z 2803/2903 01015KT CAVOK TX26/2815Z TN18/2806Z PROB30 TEMPO 2814/2821 01018G28KT

Obserwacja i prognoza pogody dla ponad 4000 lotnisk (raport METAR i TAF).

Dostępne stacje oznaczono żółtymi i czerwonymi punktami na mapie.

Najedź kursorem aby zobaczyć nazwę stacji.

Kliknij aby zobaczyć obserwacje i prognozy pogody.

Aby zmienić mapę: kliknij na zielony przycisk z czarnym krzyżykiem, aby powiększyć; na zielony przycisk z myślnikiem, aby pomniejszyć; na zielone strzałki, aby przejść do map sąsiednich.


METAR-TAF: